Terminal Aerodrome Forecast
Issued by NWS

Home | Current Version | Previous Version | Text Only | Print | Product List | Glossary On
Versions: 1 2 3 4 5 6 7 8 9 10 11 12 13 14 15 16 17 18 19 20 21 22 23 24 25 26 27 28 29 30 31 32 33 34 35 36 37 38 39 40 41 42 43 44 45 46 47 48 49 50
282
FTUS46 KEKA 241151
TAFACV
TAF
KACV 241151Z 2412/2512 33004KT 2SM BR OVC003
      TEMPO 2412/2415 1SM BR OVC002
     FM241700 27005KT 4SM BR BKN005
     FM241900 29008KT P6SM BKN012
     FM242100 31010KT P6SM SCT020 BKN250
     FM250000 31010G18KT 6SM HZ SCT025 BKN250
     FM250500 14008G14KT P6SM BKN012
     FM250800 13006KT 6SM BR OVC006=

USA.gov is the U.S. government's official web portal to all federal, state and local government web resources and services.